createdAt,value
2018-09-10T00:01:14.359Z,13.88
2018-09-10T00:03:44.060Z,13.85
2018-09-10T00:06:13.942Z,13.77
2018-09-10T00:08:45.763Z,13.71
2018-09-10T00:11:15.371Z,13.81
2018-09-10T00:13:45.550Z,13.91
2018-09-10T00:16:15.365Z,13.92
2018-09-10T00:18:45.190Z,13.78
2018-09-10T00:21:14.896Z,13.64
2018-09-10T00:23:44.678Z,13.53
2018-09-10T00:26:14.408Z,13.48
2018-09-10T00:28:44.194Z,13.49
2018-09-10T00:31:13.988Z,13.58
2018-09-10T00:33:43.726Z,13.51
2018-09-10T00:36:16.810Z,13.45
2018-09-10T00:38:46.567Z,13.46
2018-09-10T00:41:16.268Z,13.48
2018-09-10T00:43:46.114Z,13.53
2018-09-10T00:46:15.776Z,13.61
2018-09-10T00:48:45.391Z,13.61
2018-09-10T00:51:17.161Z,13.54
2018-09-10T00:53:46.823Z,13.49
2018-09-10T00:56:16.505Z,13.43
2018-09-10T00:58:46.406Z,13.38
2018-09-10T01:01:16.113Z,13.36
2018-09-10T01:03:49.521Z,13.33
2018-09-10T01:06:19.162Z,13.33
2018-09-10T01:08:48.899Z,13.36
2018-09-10T01:11:18.745Z,13.38
2018-09-10T01:13:50.421Z,13.37
2018-09-10T01:16:20.121Z,13.34
2018-09-10T01:18:50.004Z,13.32
2018-09-10T01:21:21.420Z,13.31
2018-09-10T01:23:51.210Z,13.25
2018-09-10T01:26:20.887Z,13.23
2018-09-10T01:28:50.975Z,13.23
2018-09-10T01:31:25.772Z,13.21
2018-09-10T01:34:01.210Z,13.13
2018-09-10T01:36:30.902Z,13.07
2018-09-10T01:39:00.898Z,13.03
2018-09-10T01:41:30.582Z,13.05
2018-09-10T01:44:01.011Z,13.02
2018-09-10T01:46:30.796Z,13.03
2018-09-10T01:49:00.642Z,13.07
2018-09-10T01:51:30.335Z,13.04
2018-09-10T01:54:00.422Z,12.97
2018-09-10T01:56:30.114Z,12.93
2018-09-10T01:58:59.823Z,12.93
2018-09-10T02:01:29.533Z,12.84
2018-09-10T02:03:59.302Z,12.81
2018-09-10T02:06:29.016Z,12.79
2018-09-10T02:08:58.682Z,12.69
2018-09-10T02:11:28.351Z,12.56
2018-09-10T02:13:58.051Z,12.47
2018-09-10T02:16:27.686Z,12.61
2018-09-10T02:18:57.346Z,12.58
2018-09-10T02:21:27.133Z,12.45
2018-09-10T02:23:56.841Z,12.45
2018-09-10T02:26:26.595Z,12.47
2018-09-10T02:28:58.624Z,12.48
2018-09-10T02:31:28.455Z,12.54
2018-09-10T02:33:58.131Z,12.59
2018-09-10T02:36:27.822Z,12.55
2018-09-10T02:38:57.563Z,12.53
2018-09-10T02:41:27.293Z,12.56
2018-09-10T02:43:56.967Z,12.58
2018-09-10T02:46:26.739Z,12.58
2018-09-10T02:48:56.417Z,12.58
2018-09-10T02:51:26.336Z,12.52
2018-09-10T02:53:55.987Z,12.52
2018-09-10T02:56:25.593Z,12.49
2018-09-10T02:58:55.323Z,12.48
2018-09-10T03:01:25.161Z,12.39
2018-09-10T03:03:54.871Z,12.33
2018-09-10T03:06:24.612Z,12.29
2018-09-10T03:08:54.380Z,12.34
2018-09-10T03:11:24.107Z,12.34
2018-09-10T03:13:53.856Z,12.28
2018-09-10T03:16:23.538Z,12.27
2018-09-10T03:18:53.210Z,12.25
2018-09-10T03:21:22.835Z,12.22
2018-09-10T03:23:52.611Z,12.22
2018-09-10T03:26:22.231Z,12.15
2018-09-10T03:28:51.886Z,12.02
2018-09-10T03:31:21.563Z,11.91
2018-09-10T03:33:51.197Z,11.88
2018-09-10T03:36:20.859Z,11.99
2018-09-10T03:38:50.602Z,11.95
2018-09-10T03:41:20.232Z,11.94
2018-09-10T03:43:49.874Z,11.98
2018-09-10T03:46:19.494Z,11.95
2018-09-10T03:48:49.237Z,11.90
2018-09-10T03:51:18.933Z,12.06
2018-09-10T03:53:48.956Z,12.20
2018-09-10T03:56:18.668Z,12.21
2018-09-10T03:58:48.335Z,12.23
2018-09-10T04:01:18.070Z,12.28
2018-09-10T04:03:47.923Z,12.28
2018-09-10T04:06:17.648Z,12.33
2018-09-10T04:08:47.402Z,12.33
2018-09-10T04:11:17.136Z,12.38
2018-09-10T04:13:46.836Z,12.44
2018-09-10T04:16:16.602Z,12.40
2018-09-10T04:18:46.858Z,12.36
2018-09-10T04:21:16.643Z,12.30
2018-09-10T04:23:46.600Z,12.20
2018-09-10T04:26:32.771Z,12.16
2018-09-10T04:29:02.592Z,12.19
2018-09-10T04:31:32.313Z,12.17
2018-09-10T04:34:01.960Z,11.97
2018-09-10T04:36:31.718Z,11.81
2018-09-10T04:39:01.430Z,11.69
2018-09-10T04:41:40.091Z,11.55
2018-09-10T04:47:17.966Z,11.48
2018-09-10T04:49:47.590Z,11.63
2018-09-10T04:52:17.309Z,11.84
2018-09-10T04:55:11.187Z,11.99
2018-09-10T04:57:40.894Z,12.07
2018-09-10T05:00:10.639Z,11.94
2018-09-10T05:02:40.384Z,11.71
2018-09-10T05:05:10.043Z,11.60
2018-09-10T05:07:39.825Z,11.60
2018-09-10T05:10:09.683Z,11.57
2018-09-10T05:12:39.402Z,11.62
2018-09-10T05:15:09.214Z,11.70
2018-09-10T05:17:38.966Z,11.77
2018-09-10T05:20:08.747Z,11.91
2018-09-10T05:22:38.407Z,11.96
2018-09-10T05:25:08.345Z,12.01
2018-09-10T05:27:38.030Z,12.11
2018-09-10T05:30:07.826Z,12.23
2018-09-10T05:32:37.585Z,12.27
2018-09-10T05:35:07.702Z,12.33
2018-09-10T05:37:37.530Z,12.34
2018-09-10T05:40:09.400Z,12.38
2018-09-10T05:42:39.702Z,12.46
2018-09-10T05:45:11.687Z,12.56
2018-09-10T05:47:42.053Z,12.68
2018-09-10T05:50:13.867Z,12.77
2018-09-10T05:52:43.500Z,12.87
2018-09-10T05:55:13.255Z,13.03
2018-09-10T05:57:42.911Z,13.19
2018-09-10T06:00:13.510Z,13.31
2018-09-10T06:02:43.264Z,13.49
2018-09-10T06:05:12.971Z,13.66
2018-09-10T06:08:00.207Z,13.84
2018-09-10T06:10:29.982Z,14.02
2018-09-10T06:12:59.591Z,14.16
2018-09-10T06:15:29.314Z,14.26
2018-09-10T06:17:58.974Z,14.40
2018-09-10T06:20:28.682Z,14.58
2018-09-10T06:22:58.367Z,14.77
2018-09-10T06:25:31.330Z,14.97
2018-09-10T06:28:01.158Z,15.10
2018-09-10T06:30:30.855Z,15.29
2018-09-10T06:33:01.409Z,15.57
2018-09-10T06:35:31.090Z,16.17
2018-09-10T06:38:00.737Z,17.16
2018-09-10T06:40:34.982Z,17.68
2018-09-10T06:43:04.678Z,18.78
2018-09-10T06:45:34.371Z,19.74
2018-09-10T06:48:04.067Z,21.47
2018-09-10T06:50:33.863Z,22.68
2018-09-10T06:53:03.556Z,23.84
2018-09-10T06:55:33.461Z,23.34
2018-09-10T06:58:03.131Z,23.57
2018-09-10T07:00:32.830Z,22.66
2018-09-10T07:03:03.178Z,22.78
2018-09-10T07:05:32.837Z,24.03
2018-09-10T07:08:02.616Z,25.30
2018-09-10T07:10:32.466Z,25.28
2018-09-10T07:13:02.212Z,24.25
2018-09-10T07:15:31.892Z,23.49
2018-09-10T07:18:01.630Z,24.39
2018-09-10T07:20:31.322Z,25.21
2018-09-10T07:23:01.019Z,26.64
2018-09-10T07:25:30.693Z,27.13
2018-09-10T07:28:00.319Z,27.84
2018-09-10T07:30:30.047Z,28.39
2018-09-10T07:32:59.824Z,28.35
2018-09-10T07:35:29.480Z,28.47
2018-09-10T07:37:59.602Z,28.66
2018-09-10T07:40:29.255Z,27.65
2018-09-10T07:42:58.995Z,27.26
2018-09-10T07:45:28.679Z,29.00
2018-09-10T07:47:58.387Z,29.15
2018-09-10T07:50:28.126Z,28.86
2018-09-10T07:52:57.796Z,28.92
2018-09-10T07:55:27.478Z,30.39
2018-09-10T07:57:57.199Z,30.76
2018-09-10T08:00:26.923Z,30.57
2018-09-10T08:02:56.696Z,29.80
2018-09-10T08:05:26.491Z,30.19
2018-09-10T08:07:56.284Z,30.49
2018-09-10T08:10:26.031Z,31.33
2018-09-10T08:12:55.855Z,31.22
2018-09-10T08:15:25.554Z,29.61
2018-09-10T08:17:55.299Z,28.89
2018-09-10T08:20:24.966Z,28.48
2018-09-10T08:22:54.729Z,29.15
2018-09-10T08:25:24.415Z,30.05
2018-09-10T08:27:54.173Z,29.99
2018-09-10T08:30:23.827Z,30.79
2018-09-10T08:32:53.438Z,30.20
2018-09-10T08:35:23.207Z,29.78
2018-09-10T08:37:52.946Z,29.18
2018-09-10T08:40:22.648Z,30.39
2018-09-10T08:42:52.447Z,30.61
2018-09-10T08:45:22.089Z,30.50
2018-09-10T08:47:51.815Z,32.01
2018-09-10T08:50:21.434Z,31.36
2018-09-10T08:52:51.135Z,30.82
2018-09-10T08:55:20.975Z,31.21
2018-09-10T08:57:50.798Z,30.54
2018-09-10T09:00:20.530Z,32.05
2018-09-10T09:02:50.231Z,32.81
2018-09-10T09:05:19.959Z,31.92
2018-09-10T09:07:49.848Z,32.63
2018-09-10T09:10:19.546Z,32.20
2018-09-10T09:12:49.274Z,32.83
2018-09-10T09:15:18.940Z,34.28
2018-09-10T09:17:48.624Z,33.56
2018-09-10T09:20:18.229Z,33.38
2018-09-10T09:22:47.984Z,31.88
2018-09-10T09:25:17.699Z,29.50
2018-09-10T09:27:47.407Z,32.14
2018-09-10T09:30:17.204Z,32.86
2018-09-10T09:32:46.783Z,33.48
2018-09-10T09:35:16.514Z,29.80
2018-09-10T09:37:51.277Z,29.08
2018-09-10T09:41:25.924Z,29.51
2018-09-10T09:44:00.890Z,29.81
2018-09-10T09:46:30.524Z,29.67
2018-09-10T09:49:00.126Z,31.35
2018-09-10T09:51:29.891Z,29.70
2018-09-10T09:53:59.610Z,30.75
2018-09-10T09:56:29.295Z,30.88
2018-09-10T09:58:58.942Z,29.49
2018-09-10T10:01:33.773Z,28.82
2018-09-10T10:04:11.379Z,31.45
2018-09-10T10:06:41.014Z,32.85
2018-09-10T10:09:12.485Z,33.11
2018-09-10T10:11:42.271Z,33.43
2018-09-10T10:14:12.348Z,33.75
2018-09-10T10:16:42.148Z,33.86
2018-09-10T10:19:11.858Z,35.26
2018-09-10T10:21:41.828Z,35.90
2018-09-10T10:24:11.547Z,35.11
2018-09-10T10:26:41.278Z,33.90
2018-09-10T10:29:11.015Z,33.84
2018-09-10T10:31:40.774Z,33.82
2018-09-10T10:34:10.419Z,35.75
2018-09-10T10:36:40.111Z,35.27
2018-09-10T10:39:09.955Z,34.15
2018-09-10T10:41:39.627Z,33.66
2018-09-10T10:44:09.505Z,35.21
2018-09-10T10:46:39.494Z,35.64
2018-09-10T10:49:09.330Z,36.00
2018-09-10T10:51:39.086Z,35.85
2018-09-10T10:54:26.990Z,36.25
2018-09-10T10:56:56.890Z,36.73
2018-09-10T10:59:26.543Z,38.22
2018-09-10T11:01:56.215Z,38.40
2018-09-10T11:04:29.951Z,39.23
2018-09-10T11:07:01.626Z,39.09
2018-09-10T11:09:39.329Z,38.62
2018-09-10T11:12:09.278Z,36.48
2018-09-10T11:14:40.578Z,37.19
2018-09-10T11:17:10.291Z,34.07
2018-09-10T11:19:40.111Z,34.49
2018-09-10T11:22:10.133Z,35.65
2018-09-10T11:24:58.084Z,36.10
2018-09-10T11:27:28.234Z,35.57
2018-09-10T11:30:11.423Z,36.18
2018-09-10T11:32:41.619Z,34.44
2018-09-10T11:35:11.263Z,33.92
2018-09-10T11:37:40.984Z,34.71
2018-09-10T11:40:10.654Z,35.76
2018-09-10T11:42:40.395Z,35.79
2018-09-10T11:45:10.339Z,35.46
2018-09-10T11:48:02.075Z,34.75
2018-09-10T11:50:31.963Z,32.79
2018-09-10T11:53:02.995Z,32.77
2018-09-10T11:55:32.927Z,32.42
2018-09-10T11:58:02.629Z,31.23
2018-09-10T12:00:33.470Z,32.22
2018-09-10T12:03:03.238Z,34.03
2018-09-10T12:05:33.106Z,35.24
2018-09-10T12:08:03.406Z,36.08
2018-09-10T12:10:33.085Z,36.72
2018-09-10T12:13:02.819Z,35.14
2018-09-10T12:15:35.718Z,34.80
2018-09-10T12:18:05.451Z,37.50
2018-09-10T12:20:36.281Z,38.80
2018-09-10T12:23:06.149Z,39.67
2018-09-10T12:25:36.067Z,36.71
2018-09-10T12:28:06.286Z,39.93
2018-09-10T12:30:36.982Z,41.65
2018-09-10T12:33:06.828Z,41.37
2018-09-10T12:35:36.660Z,40.09
2018-09-10T12:38:06.393Z,38.41
2018-09-10T12:40:47.924Z,39.09
2018-09-10T12:43:22.630Z,40.65
2018-09-10T12:45:52.297Z,41.68
2018-09-10T12:48:21.942Z,39.22
2018-09-10T12:51:04.136Z,39.79
2018-09-10T12:53:33.738Z,39.64
2018-09-10T12:56:26.395Z,38.00
2018-09-10T12:58:58.256Z,38.72
2018-09-10T13:01:30.022Z,39.67
2018-09-10T13:03:59.849Z,40.70
2018-09-10T13:06:29.618Z,39.06
2018-09-10T13:08:59.358Z,36.68
2018-09-10T13:14:47.138Z,32.49
2018-09-10T13:17:21.657Z,32.13
2018-09-10T13:19:51.882Z,33.95
2018-09-10T13:22:21.873Z,36.19
2018-09-10T13:24:54.083Z,35.76
2018-09-10T13:27:23.748Z,34.21
2018-09-10T13:30:10.139Z,35.50
2018-09-10T13:32:40.280Z,36.20
2018-09-10T13:35:10.385Z,36.59
2018-09-10T13:37:44.384Z,34.66
2018-09-10T13:40:14.499Z,34.44
2018-09-10T13:42:44.211Z,34.45
2018-09-10T13:45:14.632Z,34.99
2018-09-10T13:47:45.366Z,36.85
2018-09-10T13:50:15.378Z,36.57
2018-09-10T13:52:47.239Z,35.54
2018-09-10T13:55:17.551Z,35.23
2018-09-10T13:57:47.838Z,37.81
2018-09-10T14:00:18.414Z,38.26
2018-09-10T14:02:48.079Z,40.11
2018-09-10T14:05:17.882Z,40.37
2018-09-10T14:07:47.868Z,40.78
2018-09-10T14:10:17.539Z,39.38
2018-09-10T14:12:51.327Z,38.84
2018-09-10T14:15:21.042Z,38.29
2018-09-10T14:17:50.687Z,38.04
2018-09-10T14:20:20.642Z,37.84
2018-09-10T14:22:50.363Z,38.86
2018-09-10T14:25:21.134Z,39.31
2018-09-10T14:27:50.759Z,38.60
2018-09-10T14:30:20.759Z,38.47
2018-09-10T14:32:50.490Z,37.74
2018-09-10T14:35:20.138Z,36.38
2018-09-10T14:37:50.224Z,36.13
2018-09-10T14:40:19.979Z,37.07
2018-09-10T14:42:49.736Z,36.78
2018-09-10T14:45:19.567Z,37.04
2018-09-10T14:47:49.338Z,37.55
2018-09-10T14:50:19.015Z,37.42
2018-09-10T14:52:48.722Z,37.55
2018-09-10T14:55:18.453Z,37.67
2018-09-10T14:57:48.371Z,37.79
2018-09-10T15:00:23.440Z,36.46
2018-09-10T15:02:53.678Z,35.25
2018-09-10T15:05:23.531Z,33.76
2018-09-10T15:07:54.298Z,33.81
2018-09-10T15:10:24.034Z,34.13
2018-09-10T15:12:54.066Z,34.29
2018-09-10T15:15:23.808Z,34.10
2018-09-10T15:17:53.511Z,34.08
2018-09-10T15:20:23.481Z,33.89
2018-09-10T15:22:53.218Z,33.58
2018-09-10T15:25:23.287Z,33.38
2018-09-10T15:27:55.063Z,33.38
2018-09-10T15:30:37.286Z,33.62
2018-09-10T15:33:07.339Z,33.71
2018-09-10T15:35:37.384Z,33.90
2018-09-10T15:38:07.240Z,34.77
2018-09-10T15:40:37.090Z,35.15
2018-09-10T15:43:19.387Z,35.37
2018-09-10T15:45:49.199Z,35.57
2018-09-10T15:48:18.909Z,36.40
2018-09-10T15:50:48.644Z,36.79
2018-09-10T15:53:20.121Z,36.62
2018-09-10T15:55:49.822Z,36.05
2018-09-10T15:58:19.708Z,35.63
2018-09-10T16:00:50.030Z,35.01
2018-09-10T16:03:20.422Z,34.30
2018-09-10T16:05:50.651Z,33.59
2018-09-10T16:08:20.332Z,33.35
2018-09-10T16:10:50.010Z,33.28
2018-09-10T16:13:19.704Z,33.49
2018-09-10T16:15:49.379Z,32.98
2018-09-10T16:18:19.190Z,32.15
2018-09-10T16:20:53.007Z,31.52
2018-09-10T16:23:42.094Z,31.35
2018-09-10T16:29:15.355Z,32.43
2018-09-10T16:31:45.112Z,32.04
2018-09-10T16:34:25.197Z,32.23
2018-09-10T16:36:55.008Z,31.57
2018-09-10T16:39:28.507Z,31.27
2018-09-10T16:41:59.133Z,30.86
2018-09-10T16:44:41.608Z,30.31
2018-09-10T16:47:11.349Z,30.05
2018-09-10T16:49:41.186Z,29.88
2018-09-10T16:52:27.146Z,29.47
2018-09-10T16:54:56.900Z,28.71
2018-09-10T16:57:30.524Z,27.98
2018-09-10T17:00:00.207Z,27.62
2018-09-10T17:02:29.913Z,27.23
2018-09-10T17:04:59.768Z,26.82
2018-09-10T17:07:54.593Z,26.34
2018-09-10T17:10:24.326Z,26.03
2018-09-10T17:12:54.054Z,25.68
2018-09-10T17:15:23.878Z,25.38
2018-09-10T17:17:53.681Z,24.90
2018-09-10T17:20:24.432Z,24.66
2018-09-10T17:22:54.636Z,24.32
2018-09-10T17:25:24.668Z,24.05
2018-09-10T17:27:54.628Z,23.84
2018-09-10T17:30:24.862Z,23.61
2018-09-10T17:32:55.250Z,23.34
2018-09-10T17:35:25.342Z,23.04
2018-09-10T17:37:55.408Z,22.75
2018-09-10T17:40:26.588Z,22.46
2018-09-10T17:42:56.620Z,22.18
2018-09-10T17:45:26.670Z,21.93
2018-09-10T17:47:57.190Z,21.68
2018-09-10T17:50:27.166Z,21.46
2018-09-10T17:52:56.969Z,21.30
2018-09-10T17:55:27.169Z,21.15
2018-09-10T17:57:57.210Z,20.98
2018-09-10T18:00:27.401Z,20.84
2018-09-10T18:02:57.435Z,20.74
2018-09-10T18:05:27.544Z,20.61
2018-09-10T18:08:01.258Z,20.48
2018-09-10T18:10:31.090Z,20.36
2018-09-10T18:13:00.871Z,20.32
2018-09-10T18:15:31.033Z,20.41
2018-09-10T18:18:01.369Z,20.42
2018-09-10T18:20:31.583Z,20.27
2018-09-10T18:23:05.082Z,20.09
2018-09-10T18:25:34.906Z,19.94
2018-09-10T18:28:04.532Z,19.88
2018-09-10T18:30:34.183Z,19.92
2018-09-10T18:33:03.920Z,19.84
2018-09-10T18:35:45.700Z,19.71
2018-09-10T18:38:15.496Z,19.59
2018-09-10T18:40:45.162Z,19.49
2018-09-10T18:43:15.493Z,19.39
2018-09-10T18:45:45.231Z,19.28
2018-09-10T18:48:26.406Z,19.13
2018-09-10T18:50:56.218Z,18.95
2018-09-10T18:53:30.953Z,18.82
2018-09-10T18:56:01.785Z,18.74
2018-09-10T18:58:31.502Z,18.75
2018-09-10T19:01:01.698Z,18.73
2018-09-10T19:03:31.490Z,18.72
2018-09-10T19:09:04.691Z,18.60
2018-09-10T19:11:34.339Z,18.56
2018-09-10T19:14:09.082Z,18.53
2018-09-10T19:16:39.617Z,18.42
2018-09-10T19:19:15.481Z,18.32
2018-09-10T19:21:45.265Z,18.25
2018-09-10T19:24:15.111Z,18.21
2018-09-10T19:26:44.758Z,18.16
2018-09-10T19:29:14.482Z,18.14
2018-09-10T19:31:44.439Z,18.20
2018-09-10T19:34:14.206Z,18.16
2018-09-10T19:36:44.143Z,18.09
2018-09-10T19:39:13.898Z,18.05
2018-09-10T19:41:43.591Z,18.02
2018-09-10T19:44:13.255Z,18.01
2018-09-10T19:46:43.103Z,17.95
2018-09-10T19:49:12.866Z,17.90
2018-09-10T19:51:42.589Z,17.84
2018-09-10T19:54:12.275Z,17.92
2018-09-10T19:56:42.010Z,17.96
2018-09-10T19:59:11.852Z,17.92
2018-09-10T20:01:41.522Z,17.86
2018-09-10T20:04:11.337Z,17.74
2018-09-10T20:06:41.200Z,17.77
2018-09-10T20:09:11.701Z,17.83
2018-09-10T20:11:42.089Z,17.79
2018-09-10T20:14:11.775Z,17.79
2018-09-10T20:16:41.531Z,17.76
2018-09-10T20:19:11.159Z,17.70
2018-09-10T20:21:40.807Z,17.69
2018-09-10T20:24:10.629Z,17.62
2018-09-10T20:26:40.342Z,17.55
2018-09-10T20:29:14.055Z,17.48
2018-09-10T20:31:43.810Z,17.40
2018-09-10T20:34:13.484Z,17.37
2018-09-10T20:36:43.192Z,17.30
2018-09-10T20:39:13.995Z,17.25
2018-09-10T20:41:55.014Z,17.16
2018-09-10T20:44:24.674Z,17.11
2018-09-10T20:46:56.633Z,17.05
2018-09-10T20:49:26.385Z,17.00
2018-09-10T20:51:56.899Z,17.05
2018-09-10T20:54:34.215Z,17.09
2018-09-10T20:57:03.914Z,17.05
2018-09-10T20:59:33.622Z,17.01
2018-09-10T21:02:03.299Z,16.96
2018-09-10T21:04:32.955Z,16.85
2018-09-10T21:07:02.723Z,16.78
2018-09-10T21:09:44.527Z,16.77
2018-09-10T21:12:14.222Z,16.71
2018-09-10T21:14:43.938Z,16.65
2018-09-10T21:17:13.726Z,16.55
2018-09-10T21:19:43.447Z,16.51
2018-09-10T21:22:13.160Z,16.47
2018-09-10T21:24:42.958Z,16.44
2018-09-10T21:27:12.689Z,16.52
2018-09-10T21:29:42.338Z,16.54
2018-09-10T21:35:26.266Z,16.43
2018-09-10T21:37:55.979Z,16.38
2018-09-10T21:40:25.642Z,16.33
2018-09-10T21:42:55.319Z,16.32
2018-09-10T21:45:25.103Z,16.29
2018-09-10T21:47:54.830Z,16.39
2018-09-10T21:50:24.513Z,16.37
2018-09-10T21:52:54.255Z,16.28
2018-09-10T21:55:23.940Z,16.23
2018-09-10T21:57:53.689Z,16.17
2018-09-10T22:00:24.056Z,16.12
2018-09-10T22:02:53.754Z,16.04
2018-09-10T22:05:28.432Z,16.03
2018-09-10T22:07:58.094Z,16.02
2018-09-10T22:10:27.889Z,15.95
2018-09-10T22:12:57.538Z,15.87
2018-09-10T22:15:45.391Z,15.79
2018-09-10T22:18:15.234Z,15.71
2018-09-10T22:20:45.389Z,15.58
2018-09-10T22:23:15.092Z,15.45
2018-09-10T22:25:44.804Z,15.38
2018-09-10T22:28:14.498Z,15.43
2018-09-10T22:30:44.292Z,15.47
2018-09-10T22:33:14.071Z,15.44
2018-09-10T22:35:43.799Z,15.43
2018-09-10T22:38:13.448Z,15.40
2018-09-10T22:40:43.119Z,15.36
2018-09-10T22:43:12.883Z,15.31
2018-09-10T22:45:48.163Z,15.27
2018-09-10T22:48:18.130Z,15.24
2018-09-10T22:50:47.908Z,15.22
2018-09-10T22:53:17.586Z,15.23
2018-09-10T22:55:47.494Z,15.22
2018-09-10T22:58:23.446Z,15.22
2018-09-10T23:00:53.075Z,15.23
2018-09-10T23:03:22.990Z,15.19
2018-09-10T23:05:52.717Z,15.13
2018-09-10T23:08:22.444Z,15.15
2018-09-10T23:10:52.484Z,15.19
2018-09-10T23:13:34.189Z,15.19
2018-09-10T23:16:03.980Z,15.17
2018-09-10T23:18:33.662Z,15.12
2018-09-10T23:21:03.447Z,15.07
2018-09-10T23:23:33.198Z,14.95
2018-09-10T23:26:02.886Z,14.80
2018-09-10T23:28:44.881Z,14.71
2018-09-10T23:31:14.607Z,14.63
2018-09-10T23:33:44.219Z,14.58
2018-09-10T23:36:13.941Z,14.59
2018-09-10T23:38:43.673Z,14.65
2018-09-10T23:41:13.346Z,14.68
2018-09-10T23:43:43.008Z,14.59
2018-09-10T23:46:28.782Z,14.55
2018-09-10T23:48:58.542Z,14.61
2018-09-10T23:51:28.156Z,14.64
2018-09-10T23:53:57.906Z,14.65
2018-09-10T23:56:27.942Z,14.65
2018-09-10T23:58:57.659Z,14.63
